Time;durP1;ratioP1;P1;durP2;ratioP2;P2;SDS_P1;SDS_P2;PMS_P1;PMS_P2;Temp;Humidity;BMP_temperature;BMP_pressure;BME280_temperature;BME280_humidity;BME280_pressure;Samples;Min_cycle;Max_cycle;Signal;HPM_P1;HPM_P2
2021/01/30 00:00:44;;;;;;;16.70;15.85;;;8.90;84.00;;;;;;5035537;28;20209;-78
2021/01/30 00:03:13;;;;;;;17.50;16.60;;;8.90;82.70;;;;;;5035196;28;20217;-78
2021/01/30 00:05:40;;;;;;;16.35;15.55;;;8.80;81.30;;;;;;5033928;28;20220;-78
2021/01/30 00:08:07;;;;;;;17.20;16.30;;;8.80;82.40;;;;;;5033770;28;20221;-78
2021/01/30 00:10:34;;;;;;;16.75;15.85;;;8.80;81.50;;;;;;5033666;28;20266;-78
2021/01/30 00:13:00;;;;;;;17.25;16.30;;;8.80;81.90;;;;;;5033703;28;20193;-78
2021/01/30 00:15:29;;;;;;;19.92;18.63;;;8.80;81.20;;;;;;5033461;28;20254;-78
2021/01/30 00:17:57;;;;;;;18.35;17.55;;;8.80;81.10;;;;;;5033519;28;20217;-78
2021/01/30 00:20:26;;;;;;;17.92;16.77;;;8.90;81.50;;;;;;5033400;28;20555;-78
2021/01/30 00:22:53;;;;;;;17.63;16.70;;;8.90;81.60;;;;;;5033527;28;20236;-78
2021/01/30 00:25:21;;;;;;;17.80;17.00;;;8.80;80.50;;;;;;5033491;28;20284;-78
2021/01/30 00:27:47;;;;;;;18.90;17.80;;;8.90;79.90;;;;;;5033314;28;20217;-78
2021/01/30 00:30:17;;;;;;;18.25;17.35;;;8.80;80.30;;;;;;5033397;28;20604;-78
2021/01/30 00:32:44;;;;;;;18.30;17.40;;;8.80;80.40;;;;;;5033101;28;20197;-78
2021/01/30 00:35:12;;;;;;;18.10;16.90;;;8.70;79.60;;;;;;5033300;28;20740;-78
2021/01/30 00:37:39;;;;;;;17.65;16.80;;;8.70;80.10;;;;;;5032898;28;20221;-78
2021/01/30 00:40:07;;;;;;;17.90;17.02;;;8.70;80.60;;;;;;5033018;28;20197;-78
2021/01/30 00:42:34;;;;;;;18.00;17.13;;;8.70;80.20;;;;;;5032979;28;20200;-78
2021/01/30 00:45:01;;;;;;;18.60;17.70;;;8.60;80.30;;;;;;5032858;28;20201;-78
2021/01/30 00:47:27;;;;;;;18.33;17.27;;;8.60;80.30;;;;;;5032694;28;20225;-78
2021/01/30 00:49:53;;;;;;;18.30;17.30;;;8.60;80.00;;;;;;5033036;28;20193;-78
2021/01/30 00:52:24;;;;;;;17.35;16.55;;;8.50;80.30;;;;;;5033104;28;20213;-78
2021/01/30 00:54:50;;;;;;;18.02;17.13;;;8.40;80.00;;;;;;5032932;28;20621;-78
2021/01/30 00:57:17;;;;;;;17.80;16.90;;;8.40;80.70;;;;;;5032688;28;20327;-78
2021/01/30 00:59:43;;;;;;;18.77;17.88;;;8.30;80.60;;;;;;5032963;28;20280;-78
2021/01/30 01:02:09;;;;;;;18.17;17.17;;;8.30;81.40;;;;;;5032848;28;20555;-78
2021/01/30 01:04:36;;;;;;;17.90;17.10;;;8.30;81.20;;;;;;5032857;28;20298;-78
2021/01/30 01:07:02;;;;;;;17.70;16.83;;;8.40;80.90;;;;;;5032497;28;20217;-78
2021/01/30 01:09:30;;;;;;;17.70;16.80;;;8.50;80.90;;;;;;5032631;28;20197;-78
2021/01/30 01:11:56;;;;;;;17.40;16.50;;;8.40;80.50;;;;;;5033059;28;20193;-78
2021/01/30 01:14:24;;;;;;;17.00;15.90;;;8.40;80.70;;;;;;5032985;28;20197;-78
2021/01/30 01:16:51;;;;;;;17.17;16.27;;;8.40;80.70;;;;;;5033575;28;20213;-78
2021/01/30 01:19:18;;;;;;;16.52;15.70;;;8.30;81.00;;;;;;5034228;28;20740;-78
2021/01/30 01:21:49;;;;;;;16.90;16.10;;;8.30;81.10;;;;;;5032802;28;20554;-78
2021/01/30 01:24:15;;;;;;;17.77;16.58;;;8.20;81.70;;;;;;5032731;28;20213;-78
2021/01/30 01:26:44;;;;;;;17.73;16.83;;;8.20;81.80;;;;;;5032140;28;20240;-78
2021/01/30 01:29:13;;;;;;;17.90;17.10;;;8.20;82.00;;;;;;5032573;28;20202;-78
2021/01/30 01:31:39;;;;;;;17.42;16.63;;;8.30;81.80;;;;;;5032517;28;20201;-78
2021/01/30 01:34:06;;;;;;;17.42;16.52;;;8.20;81.80;;;;;;5032570;28;20205;-78
2021/01/30 01:36:32;;;;;;;17.00;16.00;;;8.30;81.70;;;;;;5032230;28;20201;-78
2021/01/30 01:38:58;;;;;;;16.85;15.77;;;8.30;81.70;;;;;;5032574;28;20197;-78
2021/01/30 01:41:25;;;;;;;16.60;15.80;;;8.30;81.90;;;;;;5032409;28;20670;-78
2021/01/30 01:43:52;;;;;;;17.15;16.20;;;8.30;81.90;;;;;;5032632;28;20221;-78
2021/01/30 01:46:26;;;;;;;16.67;15.85;;;8.40;82.20;;;;;;5032405;28;20198;-78
2021/01/30 01:48:58;;;;;;;15.55;14.75;;;8.40;81.60;;;;;;5032593;28;20601;-78
2021/01/30 01:51:33;;;;;;;16.67;15.77;;;8.50;82.30;;;;;;5032294;28;20254;-78
2021/01/30 01:54:04;;;;;;;17.17;16.10;;;8.40;82.50;;;;;;5035772;28;20654;-78
2021/01/30 01:56:33;;;;;;;16.70;15.80;;;8.40;82.00;;;;;;5036022;28;20429;-78
2021/01/30 01:59:05;;;;;;;18.55;17.48;;;8.50;81.60;;;;;;5036194;28;20205;-78
2021/01/30 02:01:34;;;;;;;17.98;17.08;;;8.50;81.70;;;;;;5036288;28;20201;-78
2021/01/30 02:04:01;;;;;;;17.70;16.90;;;8.40;81.80;;;;;;5036060;28;20228;-78
2021/01/30 02:06:29;;;;;;;19.15;18.15;;;8.50;82.20;;;;;;5035701;28;20659;-78
2021/01/30 02:08:55;;;;;;;20.65;19.30;;;8.50;82.10;;;;;;5036167;28;20202;-78
2021/01/30 02:11:22;;;;;;;17.38;16.50;;;8.50;82.60;;;;;;5035778;28;20204;-78
2021/01/30 02:13:51;;;;;;;17.70;16.80;;;8.40;82.40;;;;;;5036092;28;20193;-78
2021/01/30 02:16:34;;;;;;;16.83;15.98;;;8.40;82.50;;;;;;5035444;28;20206;-78
2021/01/30 02:19:31;;;;;;;17.15;16.35;;;8.40;82.50;;;;;;5035781;28;20219;-78
2021/01/30 02:22:19;;;;;;;16.92;16.15;;;8.40;83.00;;;;;;4980003;28;20203;-78
2021/01/30 02:25:16;;;;;;;17.73;16.90;;;8.40;83.10;;;;;;5035664;28;20620;-78
2021/01/30 02:28:10;;;;;;;17.17;16.38;;;8.40;82.90;;;;;;5035418;28;20225;-78
2021/01/30 02:31:01;;;;;;;17.50;16.63;;;8.30;83.50;;;;;;5035674;28;20198;-78
2021/01/30 02:34:01;;;;;;;18.10;17.00;;;8.30;84.70;;;;;;5035428;28;20200;-78
2021/01/30 02:36:35;;;;;;;18.10;17.10;;;8.30;84.50;;;;;;5030472;28;20203;-78
2021/01/30 02:39:12;;;;;;;17.08;16.27;;;8.30;83.80;;;;;;5039308;28;20196;-78
2021/01/30 02:41:42;;;;;;;16.27;15.48;;;8.40;83.20;;;;;;5040349;28;20201;-78
2021/01/30 02:44:14;;;;;;;16.23;15.52;;;8.40;83.20;;;;;;5036463;28;20217;-78
2021/01/30 02:46:46;;;;;;;15.63;14.82;;;8.40;83.20;;;;;;5035192;28;20197;-78
2021/01/30 02:49:19;;;;;;;14.85;14.25;;;8.50;83.50;;;;;;5035775;28;20258;-78
2021/01/30 02:51:56;;;;;;;15.70;15.00;;;8.40;86.20;;;;;;5040114;28;20210;-78
2021/01/30 02:54:23;;;;;;;15.80;15.00;;;8.20;85.30;;;;;;5037358;28;20215;-78
2021/01/30 02:56:55;;;;;;;16.05;15.25;;;8.10;85.20;;;;;;5036548;28;20221;-78
2021/01/30 02:59:24;;;;;;;15.40;14.55;;;8.10;84.90;;;;;;5037448;28;20215;-78
2021/01/30 03:01:50;;;;;;;15.63;14.93;;;8.10;84.90;;;;;;5035662;28;20197;-78
2021/01/30 03:04:22;;;;;;;16.10;15.30;;;8.10;85.00;;;;;;5034807;28;20220;-78
2021/01/30 03:07:12;;;;;;;16.67;15.90;;;8.10;84.90;;;;;;5034747;28;20702;-78
2021/01/30 03:09:43;;;;;;;16.10;15.40;;;8.00;85.00;;;;;;5001722;28;20211;-78
2021/01/30 03:12:15;;;;;;;16.23;15.52;;;7.90;85.50;;;;;;5035515;28;20197;-78
2021/01/30 03:14:49;;;;;;;16.30;15.60;;;7.90;85.60;;;;;;5034776;28;20204;-78
2021/01/30 03:17:18;;;;;;;16.90;16.20;;;7.90;85.70;;;;;;5034588;28;20218;-78
2021/01/30 03:19:45;;;;;;;16.65;15.90;;;8.00;84.80;;;;;;5034650;28;20197;-78
2021/01/30 03:22:14;;;;;;;17.40;16.60;;;8.00;84.30;;;;;;5034792;28;20202;-78
2021/01/30 03:24:45;;;;;;;16.90;16.10;;;8.00;84.50;;;;;;5034425;28;20252;-78
2021/01/30 03:27:17;;;;;;;17.63;16.63;;;7.90;84.70;;;;;;5034350;28;20217;-78
2021/01/30 03:29:43;;;;;;;17.38;16.50;;;7.90;85.00;;;;;;5034522;28;20207;-78
2021/01/30 03:32:10;;;;;;;16.98;16.27;;;8.00;85.20;;;;;;5034583;28;20284;-78
2021/01/30 03:34:36;;;;;;;17.65;16.75;;;8.00;84.70;;;;;;5034597;28;20200;-78
2021/01/30 03:37:02;;;;;;;16.42;15.63;;;8.00;84.70;;;;;;5034135;28;20227;-78
2021/01/30 03:39:29;;;;;;;17.77;16.88;;;8.00;84.90;;;;;;5034342;28;20204;-78
2021/01/30 03:41:56;;;;;;;17.05;16.35;;;8.00;84.40;;;;;;5034323;28;20675;-78
2021/01/30 03:44:22;;;;;;;17.52;16.63;;;8.10;84.00;;;;;;5034163;28;20218;-78
2021/01/30 03:46:49;;;;;;;16.90;16.20;;;8.10;83.90;;;;;;5033937;28;20217;-78
2021/01/30 03:49:15;;;;;;;16.13;15.43;;;8.10;84.10;;;;;;5034282;28;20196;-78
2021/01/30 03:51:41;;;;;;;17.08;16.38;;;8.00;86.20;;;;;;5034041;28;20228;-78
2021/01/30 03:54:08;;;;;;;16.75;16.05;;;8.10;85.50;;;;;;5034072;28;20217;-78
2021/01/30 03:56:35;;;;;;;16.90;16.10;;;8.10;84.90;;;;;;5033673;28;20554;-78
2021/01/30 03:59:01;;;;;;;16.67;15.98;;;8.10;85.00;;;;;;5033923;28;20193;-78
2021/01/30 04:01:32;;;;;;;16.98;16.20;;;8.10;84.70;;;;;;5033876;28;20613;-78
2021/01/30 04:03:58;;;;;;;16.88;16.08;;;8.10;84.50;;;;;;5033773;28;20704;-78
2021/01/30 04:06:24;;;;;;;16.70;15.90;;;8.00;84.70;;;;;;5033767;28;20540;-78
2021/01/30 04:08:51;;;;;;;16.70;15.90;;;8.10;84.70;;;;;;5033700;28;20221;-78
2021/01/30 04:11:17;;;;;;;16.20;15.50;;;8.10;85.20;;;;;;5033229;28;20228;-78
2021/01/30 04:13:44;;;;;;;15.82;15.13;;;8.10;85.10;;;;;;5033639;28;20533;-78
2021/01/30 04:16:11;;;;;;;16.85;15.95;;;8.20;84.80;;;;;;5032775;28;20197;-78
2021/01/30 04:18:37;;;;;;;17.17;16.38;;;8.10;84.80;;;;;;5033540;28;20619;-78
2021/01/30 04:21:04;;;;;;;16.60;15.90;;;8.10;84.60;;;;;;5033450;28;20609;-78
2021/01/30 04:23:30;;;;;;;16.80;15.98;;;8.00;84.50;;;;;;5033473;28;20217;-78
2021/01/30 04:25:56;;;;;;;16.67;15.98;;;8.00;84.80;;;;;;5033207;28;20229;-78
2021/01/30 04:28:23;;;;;;;17.20;16.38;;;7.90;85.00;;;;;;5033302;28;20232;-78
2021/01/30 04:30:50;;;;;;;17.42;16.52;;;7.90;85.30;;;;;;5033405;28;20197;-78
2021/01/30 04:33:16;;;;;;;18.20;17.30;;;7.90;84.90;;;;;;5033487;28;20643;-78
2021/01/30 04:35:43;;;;;;;17.73;16.92;;;7.90;85.50;;;;;;5033228;28;20623;-78
2021/01/30 04:38:09;;;;;;;16.75;15.95;;;7.90;85.60;;;;;;5033405;28;20258;-78
2021/01/30 04:40:37;;;;;;;18.73;17.73;;;8.00;85.50;;;;;;5033290;28;20227;-78
2021/01/30 04:43:15;;;;;;;17.15;16.35;;;8.00;85.40;;;;;;5033079;28;20276;-78
2021/01/30 04:45:50;;;;;;;17.55;16.67;;;8.00;84.70;;;;;;5033033;28;20605;-78
2021/01/30 04:48:30;;;;;;;17.83;16.90;;;8.00;84.70;;;;;;5033863;28;20224;-78
2021/01/30 04:51:04;;;;;;;17.58;16.58;;;8.00;84.40;;;;;;5032987;28;20209;-78
2021/01/30 04:53:55;;;;;;;17.50;16.50;;;8.10;84.50;;;;;;5033157;28;20235;-78
2021/01/30 04:56:32;;;;;;;17.33;16.42;;;8.10;84.30;;;;;;5032753;28;20224;-78
2021/01/30 04:59:07;;;;;;;17.00;16.10;;;8.00;84.40;;;;;;5033030;28;20201;-78
2021/01/30 05:01:42;;;;;;;18.08;17.13;;;8.00;84.80;;;;;;5032985;28;20197;-78
2021/01/30 05:04:15;;;;;;;17.73;16.92;;;8.00;84.80;;;;;;5032848;28;20219;-78
2021/01/30 05:06:52;;;;;;;17.88;16.88;;;8.10;84.40;;;;;;5033120;28;20536;-78
2021/01/30 05:09:26;;;;;;;17.98;16.63;;;8.10;84.30;;;;;;5032941;28;20223;-78
2021/01/30 05:12:00;;;;;;;18.30;17.40;;;8.10;84.00;;;;;;5032826;28;20208;-78
2021/01/30 05:14:32;;;;;;;18.63;17.70;;;8.00;84.10;;;;;;5032789;28;20201;-78
2021/01/30 05:17:05;;;;;;;18.02;16.92;;;8.00;84.20;;;;;;5032724;28;20221;-78
2021/01/30 05:19:39;;;;;;;18.77;17.77;;;8.00;84.10;;;;;;5032951;28;20215;-78
2021/01/30 05:22:08;;;;;;;19.10;18.00;;;8.00;84.40;;;;;;5032968;28;20201;-78
2021/01/30 05:24:35;;;;;;;18.85;18.05;;;8.10;83.50;;;;;;5032706;28;20221;-78
2021/01/30 05:27:30;;;;;;;20.63;19.05;;;8.10;83.20;;;;;;5032508;28;20220;-78
2021/01/30 05:30:05;;;;;;;20.33;18.75;;;8.20;82.50;;;;;;5037042;28;20203;-78
2021/01/30 05:32:41;;;;;;;19.83;18.63;;;8.20;82.10;;;;;;5036909;28;20201;-78
2021/01/30 05:35:12;;;;;;;20.00;18.50;;;8.20;82.00;;;;;;5036690;28;20662;-78
2021/01/30 05:37:45;;;;;;;20.52;19.33;;;8.20;81.80;;;;;;5036513;28;20270;-78
2021/01/30 05:40:29;;;;;;;19.83;18.83;;;8.10;81.90;;;;;;5036688;28;20200;-78
2021/01/30 05:43:07;;;;;;;19.42;18.33;;;8.10;82.00;;;;;;5038523;28;20554;-78
2021/01/30 05:45:42;;;;;;;21.40;19.88;;;8.00;82.70;;;;;;5040678;28;20232;-78
2021/01/30 05:48:12;;;;;;;19.58;18.48;;;8.10;82.00;;;;;;5039656;28;20222;-78
2021/01/30 05:50:44;;;;;;;20.65;18.98;;;8.00;82.00;;;;;;5039907;28;20667;-78
2021/01/30 05:53:13;;;;;;;19.23;17.85;;;8.00;81.60;;;;;;5037186;28;20563;-78
2021/01/30 05:55:40;;;;;;;20.27;18.98;;;8.00;81.80;;;;;;5036212;28;20228;-78
2021/01/30 05:58:09;;;;;;;19.58;18.48;;;8.00;81.90;;;;;;5036336;28;20308;-78
2021/01/30 06:00:36;;;;;;;21.23;19.95;;;8.00;81.90;;;;;;5036289;28;20675;-78
2021/01/30 06:03:13;;;;;;;19.70;18.52;;;8.10;81.20;;;;;;5036229;28;20205;-78
2021/01/30 06:05:42;;;;;;;20.83;19.40;;;8.00;81.20;;;;;;5036087;28;20197;-78
2021/01/30 06:08:21;;;;;;;20.15;18.95;;;8.00;81.70;;;;;;5035950;28;20224;-78
2021/01/30 06:10:51;;;;;;;21.30;20.00;;;7.90;81.70;;;;;;5035815;28;20283;-78
2021/01/30 06:13:21;;;;;;;20.30;19.10;;;7.90;81.70;;;;;;5036065;28;20197;-78
2021/01/30 06:15:50;;;;;;;21.75;20.02;;;7.90;81.20;;;;;;5035844;28;20189;-78
2021/01/30 06:18:38;;;;;;;20.90;19.27;;;8.00;81.10;;;;;;5035844;28;20213;-78
2021/01/30 06:21:12;;;;;;;21.05;19.30;;;8.00;81.10;;;;;;5035961;28;20694;-79
2021/01/30 06:23:40;;;;;;;20.42;18.40;;;8.00;81.00;;;;;;5035937;28;20336;-78
2021/01/30 06:26:16;;;;;;;21.30;19.67;;;7.90;81.10;;;;;;5035667;28;20533;-78
2021/01/30 06:28:48;;;;;;;21.85;19.75;;;7.90;80.90;;;;;;5035535;28;20713;-78
2021/01/30 06:31:24;;;;;;;20.85;19.42;;;7.90;82.20;;;;;;5035711;28;20203;-78
2021/01/30 06:33:54;;;;;;;21.25;19.38;;;7.90;81.40;;;;;;5035585;28;20674;-78
2021/01/30 06:36:24;;;;;;;21.10;19.73;;;7.80;81.40;;;;;;5035378;28;20201;-78
2021/01/30 06:38:57;;;;;;;21.35;19.70;;;7.80;81.00;;;;;;5035034;28;20223;-78
2021/01/30 06:41:26;;;;;;;23.30;21.27;;;7.80;81.10;;;;;;5035402;28;20209;-78
2021/01/30 06:44:04;;;;;;;21.25;19.90;;;7.80;80.90;;;;;;5035330;28;20239;-78
2021/01/30 06:46:31;;;;;;;21.30;19.60;;;7.90;81.70;;;;;;5035100;28;20201;-78
2021/01/30 06:49:15;;;;;;;22.05;20.65;;;8.00;80.60;;;;;;5035383;28;20204;-78
2021/01/30 06:51:42;;;;;;;21.98;20.48;;;8.00;80.70;;;;;;5035202;28;20205;-80
2021/01/30 06:54:19;;;;;;;22.42;20.38;;;7.90;80.70;;;;;;5035277;28;20193;-78
2021/01/30 06:56:51;;;;;;;21.42;19.60;;;8.00;80.10;;;;;;5035136;28;20196;-78
2021/01/30 06:59:26;;;;;;;21.15;19.55;;;8.00;80.10;;;;;;5035267;28;20215;-78
2021/01/30 07:01:52;;;;;;;23.23;21.17;;;7.90;80.30;;;;;;5039303;28;20691;-78
2021/01/30 07:05:10;;;;;;;21.63;19.77;;;8.00;80.50;;;;;;5037876;28;20221;-78
2021/01/30 07:07:47;;;;;;;20.42;19.08;;;8.00;80.30;;;;;;5031079;28;20214;-78
2021/01/30 07:10:22;;;;;;;20.95;19.55;;;8.00;80.60;;;;;;5034851;28;20681;-78
2021/01/30 07:13:00;;;;;;;21.88;20.35;;;8.00;80.70;;;;;;5034892;28;20197;-78
2021/01/30 07:15:29;;;;;;;22.63;21.00;;;8.00;80.60;;;;;;5034851;28;20197;-79
2021/01/30 07:18:23;;;;;;;22.60;21.02;;;8.00;80.40;;;;;;5034993;28;20220;-78
2021/01/30 07:21:15;;;;;;;22.17;20.40;;;8.10;80.10;;;;;;5032986;28;20275;-78
2021/01/30 07:23:50;;;;;;;22.42;20.63;;;8.10;80.00;;;;;;5034901;28;20224;-78
2021/01/30 07:26:26;;;;;;;21.58;19.85;;;8.20;80.10;;;;;;5034756;28;20192;-78
2021/01/30 07:28:57;;;;;;;22.25;20.48;;;8.10;81.00;;;;;;5034778;28;20223;-78
2021/01/30 07:31:30;;;;;;;22.65;20.85;;;8.10;81.10;;;;;;5034551;28;20193;-78
2021/01/30 07:34:10;;;;;;;22.23;20.52;;;8.20;80.60;;;;;;5034672;28;20495;-78
2021/01/30 07:36:41;;;;;;;22.27;20.80;;;8.20;80.50;;;;;;5034407;28;20239;-78
2021/01/30 07:39:27;;;;;;;22.85;21.13;;;8.30;79.90;;;;;;5034655;28;20208;-78
2021/01/30 07:41:58;;;;;;;25.67;23.27;;;8.30;79.70;;;;;;5034615;28;20211;-78
2021/01/30 07:44:31;;;;;;;22.55;20.88;;;8.40;79.50;;;;;;5034447;28;20263;-78
2021/01/30 07:47:11;;;;;;;21.77;20.13;;;8.40;79.70;;;;;;5034433;28;20687;-78
2021/01/30 07:49:41;;;;;;;21.35;19.95;;;8.40;79.60;;;;;;5033865;28;20637;-78
2021/01/30 07:52:10;;;;;;;21.00;19.50;;;8.40;80.00;;;;;;5033560;28;20201;-78
2021/01/30 07:54:46;;;;;;;22.10;20.45;;;8.40;79.90;;;;;;5034164;28;20189;-78
2021/01/30 07:57:44;;;;;;;22.70;21.30;;;8.40;80.10;;;;;;5033715;28;20607;-78
2021/01/30 08:00:18;;;;;;;22.73;21.13;;;8.60;79.70;;;;;;5033994;28;20197;-78
2021/01/30 08:03:05;;;;;;;21.85;20.35;;;8.60;79.50;;;;;;5033922;28;20681;-78
2021/01/30 08:05:38;;;;;;;22.05;20.60;;;8.60;79.20;;;;;;5021032;28;20221;-78
2021/01/30 08:08:24;;;;;;;21.23;19.83;;;8.60;79.50;;;;;;5033839;28;20222;-78
2021/01/30 08:10:57;;;;;;;21.52;20.13;;;8.70;80.30;;;;;;5033608;28;20197;-78
2021/01/30 08:13:32;;;;;;;21.67;19.98;;;8.70;80.10;;;;;;5033677;28;20280;-78
2021/01/30 08:16:10;;;;;;;22.45;20.65;;;8.80;81.10;;;;;;5033245;28;20262;-78
2021/01/30 08:18:38;;;;;;;23.25;21.52;;;8.80;80.00;;;;;;5033728;28;20717;-78
2021/01/30 08:21:16;;;;;;;22.08;20.58;;;9.00;78.80;;;;;;5033546;28;20197;-78
2021/01/30 08:23:51;;;;;;;24.38;22.40;;;9.00;78.30;;;;;;5033480;28;20249;-78
2021/01/30 08:26:24;;;;;;;24.63;22.83;;;9.00;78.20;;;;;;5033608;28;20334;-78
2021/01/30 08:29:08;;;;;;;24.17;22.15;;;9.10;78.10;;;;;;5033606;28;20636;-78
2021/01/30 08:31:37;;;;;;;22.57;20.87;;;9.20;77.70;;;;;;5033387;28;20611;-78
2021/01/30 08:34:07;;;;;;;22.93;21.03;;;9.30;77.70;;;;;;5033312;28;20497;-78
2021/01/30 08:36:37;;;;;;;24.00;21.93;;;9.30;77.60;;;;;;5035347;28;20463;-78
2021/01/30 08:39:18;;;;;;;22.88;21.42;;;9.40;77.90;;;;;;5035354;28;20471;-78
2021/01/30 08:41:49;;;;;;;23.50;21.90;;;9.40;77.80;;;;;;5033578;28;20193;-78
2021/01/30 08:44:28;;;;;;;23.52;21.92;;;9.50;76.70;;;;;;5033354;28;20488;-78
2021/01/30 08:47:07;;;;;;;23.60;21.43;;;9.40;76.40;;;;;;5033069;28;20686;-78
2021/01/30 08:49:33;;;;;;;22.70;20.85;;;9.50;76.20;;;;;;5033086;28;20512;-78
2021/01/30 08:52:22;;;;;;;23.27;21.73;;;9.60;76.30;;;;;;5032984;28;20205;-78
2021/01/30 08:54:49;;;;;;;22.67;21.10;;;9.50;76.10;;;;;;5034259;28;20198;-78
2021/01/30 08:57:43;;;;;;;24.80;23.13;;;9.50;76.50;;;;;;5038532;28;20476;-78
2021/01/30 09:00:48;;;;;;;23.20;21.40;;;9.50;76.50;;;;;;5037461;28;20952;-78
2021/01/30 09:03:36;;;;;;;22.90;21.40;;;9.60;76.50;;;;;;5033044;28;20496;-78
2021/01/30 09:06:03;;;;;;;24.83;22.85;;;9.60;76.60;;;;;;5033016;28;20198;-78
2021/01/30 09:08:44;;;;;;;23.50;21.77;;;9.60;76.30;;;;;;5032816;28;20363;-78
2021/01/30 09:11:40;;;;;;;23.33;21.43;;;9.70;76.50;;;;;;5032651;28;20543;-79
2021/01/30 09:14:34;;;;;;;28.83;26.43;;;9.70;77.00;;;;;;5033231;28;20451;-78
2021/01/30 09:17:39;;;;;;;23.90;21.70;;;9.70;77.80;;;;;;5033162;28;20475;-78
2021/01/30 09:20:18;;;;;;;23.63;21.90;;;9.90;76.40;;;;;;5031975;28;20479;-78
2021/01/30 09:22:58;;;;;;;23.43;21.90;;;9.90;76.20;;;;;;5033088;28;20473;-78
2021/01/30 09:25:35;;;;;;;24.07;22.13;;;9.90;76.20;;;;;;5033215;28;20486;-78
2021/01/30 09:28:04;;;;;;;24.93;22.87;;;9.90;76.00;;;;;;5033144;28;20471;-78
2021/01/30 09:30:39;;;;;;;23.03;21.20;;;10.00;75.70;;;;;;5032804;28;20888;-78
2021/01/30 09:33:12;;;;;;;24.33;22.53;;;10.00;75.60;;;;;;5032770;28;21541;-78
2021/01/30 09:35:42;;;;;;;22.83;20.97;;;10.00;76.30;;;;;;5032610;28;20534;-78
2021/01/30 09:38:23;;;;;;;22.40;20.60;;;10.00;76.10;;;;;;5032725;28;20467;-78
2021/01/30 09:40:50;;;;;;;24.57;22.60;;;10.10;75.40;;;;;;5032622;28;20463;-78
2021/01/30 09:43:22;;;;;;;23.80;22.00;;;10.20;75.20;;;;;;5032611;28;20459;-78
2021/01/30 09:45:52;;;;;;;26.57;23.80;;;10.20;75.10;;;;;;5032409;28;20444;-78
2021/01/30 09:48:19;;;;;;;24.00;22.13;;;10.20;74.90;;;;;;5033010;28;20819;-78
2021/01/30 09:50:50;;;;;;;24.10;22.50;;;10.30;74.80;;;;;;5032494;28;20447;-78
2021/01/30 09:53:26;;;;;;;24.20;22.10;;;10.40;74.40;;;;;;5032529;28;20948;-78
2021/01/30 09:56:03;;;;;;;24.10;22.10;;;10.30;75.60;;;;;;5032479;28;20505;-78
2021/01/30 09:58:30;;;;;;;24.30;22.07;;;10.50;75.30;;;;;;5032485;28;20468;-78
2021/01/30 10:01:05;;;;;;;23.70;21.97;;;10.60;74.50;;;;;;5032623;28;20479;-78
2021/01/30 10:03:37;;;;;;;23.83;21.90;;;10.50;77.20;;;;;;5032512;28;20473;-78
2021/01/30 10:06:11;;;;;;;26.10;23.80;;;10.60;75.00;;;;;;5032525;28;20859;-78
2021/01/30 10:08:37;;;;;;;22.60;20.90;;;10.70;75.40;;;;;;5032858;28;20560;-78
2021/01/30 10:11:07;;;;;;;24.10;22.47;;;10.80;73.90;;;;;;5032770;28;20464;-78
2021/01/30 10:13:34;;;;;;;22.87;21.10;;;10.90;73.50;;;;;;5037390;28;20456;-78
2021/01/30 10:16:03;;;;;;;24.77;22.47;;;11.00;74.40;;;;;;5037480;28;20457;-78
2021/01/30 10:18:33;;;;;;;24.53;22.53;;;11.00;73.80;;;;;;5036341;28;20533;-78
2021/01/30 10:21:01;;;;;;;24.63;22.80;;;11.10;73.30;;;;;;5036172;28;20968;-78
2021/01/30 10:23:33;;;;;;;24.77;22.57;;;11.00;73.80;;;;;;5036066;28;20463;-78
2021/01/30 10:26:05;;;;;;;23.40;21.37;;;11.00;76.10;;;;;;5035715;28;20455;-78
2021/01/30 10:28:44;;;;;;;24.53;22.37;;;11.20;74.50;;;;;;5035713;28;20480;-78
2021/01/30 10:31:12;;;;;;;25.27;23.30;;;11.20;74.30;;;;;;5036293;28;20459;-78
2021/01/30 10:33:44;;;;;;;24.30;22.07;;;11.20;75.40;;;;;;5035923;28;20447;-78
2021/01/30 10:36:13;;;;;;;22.63;21.03;;;11.10;75.40;;;;;;5035803;28;20510;-78
2021/01/30 10:38:39;;;;;;;24.20;22.37;;;11.10;75.10;;;;;;5035596;28;20984;-78
2021/01/30 10:41:07;;;;;;;24.07;22.00;;;11.10;75.30;;;;;;5035595;28;20451;-78
2021/01/30 10:43:37;;;;;;;24.63;22.53;;;11.10;75.20;;;;;;5035691;28;20506;-78
2021/01/30 10:46:07;;;;;;;23.37;21.87;;;11.10;75.40;;;;;;5035711;28;20451;-78
2021/01/30 10:48:38;;;;;;;22.90;21.00;;;11.10;76.40;;;;;;5035770;28;20486;-78
2021/01/30 10:51:08;;;;;;;24.77;22.80;;;11.00;75.70;;;;;;5041581;28;20502;-78
2021/01/30 10:53:37;;;;;;;22.33;20.90;;;10.90;77.80;;;;;;5037340;28;20474;-78
2021/01/30 10:56:14;;;;;;;23.37;21.50;;;10.90;78.10;;;;;;5035091;28;20945;-79
2021/01/30 10:58:41;;;;;;;22.13;20.57;;;10.80;79.30;;;;;;5035409;28;20467;-78
2021/01/30 11:01:09;;;;;;;22.10;20.70;;;10.80;78.80;;;;;;5035316;28;20960;-78
2021/01/30 11:03:48;;;;;;;23.00;21.17;;;10.90;78.90;;;;;;5035476;28;20455;-78
2021/01/30 11:06:20;;;;;;;22.60;20.97;;;10.90;79.70;;;;;;5034801;28;20463;-78
2021/01/30 11:08:47;;;;;;;22.60;21.10;;;11.00;79.40;;;;;;5034993;28;20551;-78
2021/01/30 11:11:23;;;;;;;23.00;20.90;;;11.00;78.30;;;;;;5034700;28;20460;-78
2021/01/30 11:13:50;;;;;;;21.83;20.27;;;10.80;81.80;;;;;;5035063;28;20574;-78
2021/01/30 11:16:20;;;;;;;22.60;20.73;;;10.70;79.40;;;;;;5034490;28;20452;-78
2021/01/30 11:18:50;;;;;;;23.43;21.63;;;10.70;82.00;;;;;;5034635;28;20480;-78
2021/01/30 11:21:30;;;;;;;474.43;58.20;;;10.80;80.50;;;;;;5034817;28;20462;-78
2021/01/30 11:23:59;;;;;;;21.67;20.17;;;10.90;83.70;;;;;;5034836;28;20476;-78
2021/01/30 11:26:38;;;;;;;22.33;20.67;;;10.80;85.00;;;;;;5033425;28;20515;-78
2021/01/30 11:29:27;;;;;;;24.03;22.03;;;10.80;85.00;;;;;;5037747;28;20458;-78
2021/01/30 11:31:54;;;;;;;22.10;20.70;;;10.90;82.30;;;;;;5038889;28;20459;-78
2021/01/30 11:34:21;;;;;;;23.27;21.07;;;10.90;80.50;;;;;;5035851;28;20448;-78
2021/01/30 11:36:48;;;;;;;23.07;21.37;;;10.90;80.30;;;;;;5034522;28;20513;-78
2021/01/30 11:39:14;;;;;;;23.37;21.60;;;10.90;80.00;;;;;;5034450;28;20569;-78
2021/01/30 11:41:40;;;;;;;23.10;21.40;;;11.00;80.40;;;;;;5034613;28;20462;-78
2021/01/30 11:44:07;;;;;;;23.50;21.70;;;11.20;79.80;;;;;;5034335;28;20486;-78
2021/01/30 11:46:33;;;;;;;22.67;21.00;;;11.30;78.30;;;;;;5034617;28;20514;-78
2021/01/30 11:48:59;;;;;;;25.47;23.40;;;11.20;79.50;;;;;;5034701;28;20456;-78
2021/01/30 11:51:29;;;;;;;22.80;21.20;;;11.10;77.60;;;;;;5034501;28;20471;-78
2021/01/30 11:53:56;;;;;;;23.23;21.40;;;11.00;78.40;;;;;;5034229;28;20454;-78
2021/01/30 11:56:22;;;;;;;22.33;20.87;;;11.10;77.20;;;;;;5033792;28;20451;-78
2021/01/30 11:58:49;;;;;;;21.83;20.43;;;11.20;76.60;;;;;;5034320;28;20475;-78
2021/01/30 12:01:16;;;;;;;22.30;20.80;;;11.20;78.40;;;;;;5034332;28;20448;-78
2021/01/30 12:03:42;;;;;;;22.87;21.57;;;11.00;79.60;;;;;;5034169;28;20830;-78
2021/01/30 12:06:09;;;;;;;25.20;22.17;;;10.90;77.90;;;;;;5034274;28;20967;-78
2021/01/30 12:08:36;;;;;;;22.30;20.90;;;11.00;77.50;;;;;;5034076;28;20518;-78
2021/01/30 12:11:03;;;;;;;24.33;22.20;;;10.80;77.90;;;;;;5033738;28;20804;-78
2021/01/30 12:13:29;;;;;;;22.40;21.00;;;10.70;78.70;;;;;;5034127;28;20483;-78
2021/01/30 12:15:56;;;;;;;23.00;21.40;;;10.70;78.90;;;;;;5033556;28;20459;-78
2021/01/30 12:18:23;;;;;;;23.37;21.53;;;10.50;79.40;;;;;;5033759;28;20981;-78
2021/01/30 12:20:52;;;;;;;28.43;22.10;;;10.40;80.10;;;;;;5033577;28;20805;-78
2021/01/30 12:23:19;;;;;;;22.17;20.50;;;10.30;84.90;;;;;;5033910;28;20464;-78
2021/01/30 12:25:46;;;;;;;23.00;21.17;;;10.20;82.00;;;;;;5033548;28;20479;-78
2021/01/30 12:28:17;;;;;;;22.13;20.30;;;10.20;82.60;;;;;;5033936;28;20475;-78
2021/01/30 12:30:44;;;;;;;22.10;20.40;;;10.20;88.10;;;;;;5034148;28;20946;-78
2021/01/30 12:33:10;;;;;;;21.83;20.60;;;10.20;84.60;;;;;;5035059;28;20488;-78
2021/01/30 12:35:37;;;;;;;23.47;21.83;;;10.10;83.60;;;;;;5038150;28;20821;-78
2021/01/30 12:38:04;;;;;;;23.27;21.57;;;10.10;83.00;;;;;;5039271;28;20474;-78
2021/01/30 12:40:33;;;;;;;22.03;20.53;;;10.10;82.90;;;;;;5035139;28;20505;-78
2021/01/30 12:43:00;;;;;;;24.47;22.40;;;10.20;82.30;;;;;;5034517;28;20555;-78
2021/01/30 12:45:27;;;;;;;21.97;20.37;;;10.30;82.40;;;;;;5035992;28;20490;-78
2021/01/30 12:47:53;;;;;;;22.17;20.23;;;10.20;83.40;;;;;;5033975;28;20472;-78
2021/01/30 12:50:22;;;;;;;24.20;22.17;;;10.30;82.70;;;;;;5033102;28;20459;-78
2021/01/30 12:52:48;;;;;;;28.13;26.00;;;10.30;82.90;;;;;;5033259;28;21021;-78
2021/01/30 12:55:15;;;;;;;25.07;22.97;;;10.40;82.40;;;;;;5033064;28;20452;-78
2021/01/30 12:57:42;;;;;;;24.30;22.43;;;10.40;82.20;;;;;;5032809;28;20475;-78